sensor_id;sensor_type;location;lat;lon;timestamp;temperature;humidity
32728;DHT22;55292;51.844;19.246;2023-12-07T00:04:54;-1.80;99.90
32728;DHT22;55292;51.844;19.246;2023-12-07T00:09:56;-1.70;99.90
32728;DHT22;55292;51.844;19.246;2023-12-07T00:14:59;-1.80;99.90
32728;DHT22;55292;51.844;19.246;2023-12-07T00:20:02;-1.70;99.90
32728;DHT22;55292;51.844;19.246;2023-12-07T00:25:08;-1.70;99.90
32728;DHT22;55292;51.844;19.246;2023-12-07T00:30:11;-1.70;99.90
32728;DHT22;55292;51.844;19.246;2023-12-07T00:35:14;-1.70;99.90
32728;DHT22;55292;51.844;19.246;2023-12-07T00:40:18;-1.60;99.90
32728;DHT22;55292;51.844;19.246;2023-12-07T00:45:21;-1.40;99.90
32728;DHT22;55292;51.844;19.246;2023-12-07T00:50:23;-1.70;99.90
32728;DHT22;55292;51.844;19.246;2023-12-07T00:55:26;-1.70;99.90
32728;DHT22;55292;51.844;19.246;2023-12-07T01:00:29;-1.60;99.90
32728;DHT22;55292;51.844;19.246;2023-12-07T01:05:32;-1.60;99.90
32728;DHT22;55292;51.844;19.246;2023-12-07T01:10:35;-1.60;99.90
32728;DHT22;55292;51.844;19.246;2023-12-07T01:15:37;-1.60;99.90
32728;DHT22;55292;51.844;19.246;2023-12-07T01:20:40;-1.60;99.90
32728;DHT22;55292;51.844;19.246;2023-12-07T01:25:43;-1.90;99.90
32728;DHT22;55292;51.844;19.246;2023-12-07T01:30:46;-1.30;99.90
32728;DHT22;55292;51.844;19.246;2023-12-07T01:35:50;-1.50;99.90
32728;DHT22;55292;51.844;19.246;2023-12-07T01:40:53;-1.60;99.90
32728;DHT22;55292;51.844;19.246;2023-12-07T01:45:57;-1.50;99.90
32728;DHT22;55292;51.844;19.246;2023-12-07T01:51:00;-1.50;99.90
32728;DHT22;55292;51.844;19.246;2023-12-07T01:56:03;-1.50;99.90
32728;DHT22;55292;51.844;19.246;2023-12-07T02:01:06;-1.40;99.90
32728;DHT22;55292;51.844;19.246;2023-12-07T02:06:09;-1.40;99.90
32728;DHT22;55292;51.844;19.246;2023-12-07T02:11:13;-1.40;99.90
32728;DHT22;55292;51.844;19.246;2023-12-07T02:16:23;-1.40;99.90
32728;DHT22;55292;51.844;19.246;2023-12-07T02:21:47;-1.50;99.90
32728;DHT22;55292;51.844;19.246;2023-12-07T02:26:53;-1.50;99.90
32728;DHT22;55292;51.844;19.246;2023-12-07T02:31:56;-1.50;99.90
32728;DHT22;55292;51.844;19.246;2023-12-07T02:36:59;-1.50;99.90
32728;DHT22;55292;51.844;19.246;2023-12-07T02:42:04;-1.50;99.90
32728;DHT22;55292;51.844;19.246;2023-12-07T02:47:08;-1.50;99.90
32728;DHT22;55292;51.844;19.246;2023-12-07T02:52:11;-1.50;99.90
32728;DHT22;55292;51.844;19.246;2023-12-07T02:57:14;-1.50;99.90
32728;DHT22;55292;51.844;19.246;2023-12-07T03:02:18;-1.50;99.90
32728;DHT22;55292;51.844;19.246;2023-12-07T03:07:21;-1.50;99.90
32728;DHT22;55292;51.844;19.246;2023-12-07T03:12:24;-1.40;99.90
32728;DHT22;55292;51.844;19.246;2023-12-07T03:17:27;-1.50;99.90
32728;DHT22;55292;51.844;19.246;2023-12-07T03:22:30;-1.50;99.90
32728;DHT22;55292;51.844;19.246;2023-12-07T03:27:33;-1.40;99.90
32728;DHT22;55292;51.844;19.246;2023-12-07T03:32:36;-1.50;99.90
32728;DHT22;55292;51.844;19.246;2023-12-07T03:37:39;-1.50;99.90
32728;DHT22;55292;51.844;19.246;2023-12-07T03:42:41;-1.50;99.90
32728;DHT22;55292;51.844;19.246;2023-12-07T03:47:58;-1.50;99.90
32728;DHT22;55292;51.844;19.246;2023-12-07T03:53:01;-1.50;99.90
32728;DHT22;55292;51.844;19.246;2023-12-07T03:58:03;-1.50;99.90
32728;DHT22;55292;51.844;19.246;2023-12-07T04:03:07;-1.50;99.90
32728;DHT22;55292;51.844;19.246;2023-12-07T04:08:10;-1.50;99.90
32728;DHT22;55292;51.844;19.246;2023-12-07T04:13:13;-1.50;99.90
32728;DHT22;55292;51.844;19.246;2023-12-07T04:18:16;-1.50;99.90
32728;DHT22;55292;51.844;19.246;2023-12-07T04:23:19;-1.40;99.90
32728;DHT22;55292;51.844;19.246;2023-12-07T04:28:22;-1.40;99.90
32728;DHT22;55292;51.844;19.246;2023-12-07T04:33:25;-1.40;99.90
32728;DHT22;55292;51.844;19.246;2023-12-07T04:38:28;-1.50;99.90
32728;DHT22;55292;51.844;19.246;2023-12-07T04:43:30;-1.50;99.90
32728;DHT22;55292;51.844;19.246;2023-12-07T04:48:33;-1.50;99.90
32728;DHT22;55292;51.844;19.246;2023-12-07T04:53:36;-1.40;99.90
32728;DHT22;55292;51.844;19.246;2023-12-07T04:58:39;-1.40;99.90
32728;DHT22;55292;51.844;19.246;2023-12-07T05:03:42;-1.40;99.90
32728;DHT22;55292;51.844;19.246;2023-12-07T05:08:45;-1.30;99.90
32728;DHT22;55292;51.844;19.246;2023-12-07T05:13:47;-1.30;99.90
32728;DHT22;55292;51.844;19.246;2023-12-07T05:18:50;-1.40;99.90
32728;DHT22;55292;51.844;19.246;2023-12-07T05:23:53;-1.40;99.90
32728;DHT22;55292;51.844;19.246;2023-12-07T05:28:56;-1.40;99.90
32728;DHT22;55292;51.844;19.246;2023-12-07T05:33:59;-1.40;99.90
32728;DHT22;55292;51.844;19.246;2023-12-07T05:39:04;-1.30;99.90
32728;DHT22;55292;51.844;19.246;2023-12-07T05:44:09;-1.30;99.90
32728;DHT22;55292;51.844;19.246;2023-12-07T05:49:12;-1.40;99.90
32728;DHT22;55292;51.844;19.246;2023-12-07T05:54:15;-1.40;99.90
32728;DHT22;55292;51.844;19.246;2023-12-07T05:59:18;-1.10;99.90
32728;DHT22;55292;51.844;19.246;2023-12-07T06:04:21;-1.40;99.90
32728;DHT22;55292;51.844;19.246;2023-12-07T06:09:23;-1.40;99.90
32728;DHT22;55292;51.844;19.246;2023-12-07T06:14:26;-1.40;99.90
32728;DHT22;55292;51.844;19.246;2023-12-07T06:19:29;-1.40;99.90
32728;DHT22;55292;51.844;19.246;2023-12-07T06:24:35;-1.30;99.90
32728;DHT22;55292;51.844;19.246;2023-12-07T06:29:38;-1.30;99.90
32728;DHT22;55292;51.844;19.246;2023-12-07T06:34:42;-1.30;99.90
32728;DHT22;55292;51.844;19.246;2023-12-07T06:39:45;-1.30;99.90
32728;DHT22;55292;51.844;19.246;2023-12-07T06:44:48;-1.30;99.90
32728;DHT22;55292;51.844;19.246;2023-12-07T06:49:51;-1.20;99.90
32728;DHT22;55292;51.844;19.246;2023-12-07T06:54:55;-1.20;99.90
32728;DHT22;55292;51.844;19.246;2023-12-07T06:59:57;-1.20;99.90
32728;DHT22;55292;51.844;19.246;2023-12-07T07:05:00;-1.30;99.90
32728;DHT22;55292;51.844;19.246;2023-12-07T07:10:05;-1.30;99.90
32728;DHT22;55292;51.844;19.246;2023-12-07T07:15:08;-1.30;99.90
32728;DHT22;55292;51.844;19.246;2023-12-07T07:20:11;-1.30;99.90
32728;DHT22;55292;51.844;19.246;2023-12-07T07:25:14;-1.20;99.90
32728;DHT22;55292;51.844;19.246;2023-12-07T07:30:22;-1.10;99.90
32728;DHT22;55292;51.844;19.246;2023-12-07T07:35:24;-1.10;99.90
32728;DHT22;55292;51.844;19.246;2023-12-07T07:40:30;-1.00;99.90
32728;DHT22;55292;51.844;19.246;2023-12-07T07:45:33;-1.10;99.90
32728;DHT22;55292;51.844;19.246;2023-12-07T07:50:35;-1.00;99.90
32728;DHT22;55292;51.844;19.246;2023-12-07T07:55:38;-1.00;99.90
32728;DHT22;55292;51.844;19.246;2023-12-07T08:00:41;-0.90;99.90
32728;DHT22;55292;51.844;19.246;2023-12-07T08:05:44;-0.90;99.90
32728;DHT22;55292;51.844;19.246;2023-12-07T08:10:47;-0.90;99.90
32728;DHT22;55292;51.844;19.246;2023-12-07T08:15:57;-0.80;99.90
32728;DHT22;55292;51.844;19.246;2023-12-07T08:21:00;-0.70;99.90
32728;DHT22;55292;51.844;19.246;2023-12-07T08:26:03;-0.70;99.90
32728;DHT22;55292;51.844;19.246;2023-12-07T08:31:06;-0.60;99.90
32728;DHT22;55292;51.844;19.246;2023-12-07T08:36:09;-0.50;99.90
32728;DHT22;55292;51.844;19.246;2023-12-07T08:41:12;-0.30;99.90
32728;DHT22;55292;51.844;19.246;2023-12-07T08:46:16;-0.30;99.90
32728;DHT22;55292;51.844;19.246;2023-12-07T08:51:19;-0.20;99.90
32728;DHT22;55292;51.844;19.246;2023-12-07T08:56:22;-0.10;99.90
32728;DHT22;55292;51.844;19.246;2023-12-07T09:01:25;0.00;99.90
32728;DHT22;55292;51.844;19.246;2023-12-07T09:06:36;0.10;99.90
32728;DHT22;55292;51.844;19.246;2023-12-07T09:11:39;0.30;99.90
32728;DHT22;55292;51.844;19.246;2023-12-07T09:16:45;0.40;99.90
32728;DHT22;55292;51.844;19.246;2023-12-07T09:21:48;0.80;99.90
32728;DHT22;55292;51.844;19.246;2023-12-07T09:26:51;0.80;99.90
32728;DHT22;55292;51.844;19.246;2023-12-07T09:31:55;0.70;99.90
32728;DHT22;55292;51.844;19.246;2023-12-07T09:37:10;0.90;99.90
32728;DHT22;55292;51.844;19.246;2023-12-07T09:42:13;1.10;99.90
32728;DHT22;55292;51.844;19.246;2023-12-07T09:47:18;1.00;99.90
32728;DHT22;55292;51.844;19.246;2023-12-07T09:52:32;1.10;99.90
32728;DHT22;55292;51.844;19.246;2023-12-07T09:57:37;1.10;99.90
32728;DHT22;55292;51.844;19.246;2023-12-07T10:02:41;1.20;99.90
32728;DHT22;55292;51.844;19.246;2023-12-07T10:07:47;1.50;99.90
32728;DHT22;55292;51.844;19.246;2023-12-07T10:12:55;1.50;99.90
32728;DHT22;55292;51.844;19.246;2023-12-07T10:18:00;1.40;99.90
32728;DHT22;55292;51.844;19.246;2023-12-07T10:23:09;1.40;99.90
32728;DHT22;55292;51.844;19.246;2023-12-07T10:28:12;1.30;99.90
32728;DHT22;55292;51.844;19.246;2023-12-07T10:33:15;1.40;99.90
32728;DHT22;55292;51.844;19.246;2023-12-07T10:38:18;1.40;99.90
32728;DHT22;55292;51.844;19.246;2023-12-07T10:43:22;1.50;99.90
32728;DHT22;55292;51.844;19.246;2023-12-07T10:48:25;1.50;99.90
32728;DHT22;55292;51.844;19.246;2023-12-07T10:53:40;1.60;99.90
32728;DHT22;55292;51.844;19.246;2023-12-07T10:58:47;0.60;99.90
32728;DHT22;55292;51.844;19.246;2023-12-07T11:03:52;1.60;99.90
32728;DHT22;55292;51.844;19.246;2023-12-07T11:08:59;1.60;99.90
32728;DHT22;55292;51.844;19.246;2023-12-07T11:14:07;1.60;99.90
32728;DHT22;55292;51.844;19.246;2023-12-07T11:24:36;1.70;99.90
32728;DHT22;55292;51.844;19.246;2023-12-07T11:29:40;1.80;99.90
32728;DHT22;55292;51.844;19.246;2023-12-07T11:34:43;1.70;99.90
32728;DHT22;55292;51.844;19.246;2023-12-07T11:39:47;1.80;99.90
32728;DHT22;55292;51.844;19.246;2023-12-07T11:44:50;1.90;99.90
32728;DHT22;55292;51.844;19.246;2023-12-07T11:49:53;2.20;99.90
32728;DHT22;55292;51.844;19.246;2023-12-07T11:54:56;2.00;99.90
32728;DHT22;55292;51.844;19.246;2023-12-07T11:59:59;2.10;99.90
32728;DHT22;55292;51.844;19.246;2023-12-07T12:05:04;2.10;99.90
32728;DHT22;55292;51.844;19.246;2023-12-07T12:10:07;1.80;99.90
32728;DHT22;55292;51.844;19.246;2023-12-07T12:15:10;2.00;99.90
32728;DHT22;55292;51.844;19.246;2023-12-07T12:20:14;2.10;99.90
32728;DHT22;55292;51.844;19.246;2023-12-07T12:25:25;2.10;99.90
32728;DHT22;55292;51.844;19.246;2023-12-07T12:30:29;2.30;99.90
32728;DHT22;55292;51.844;19.246;2023-12-07T12:35:32;2.10;99.90
32728;DHT22;55292;51.844;19.246;2023-12-07T12:40:35;2.20;99.90
32728;DHT22;55292;51.844;19.246;2023-12-07T12:45:40;2.00;99.90
32728;DHT22;55292;51.844;19.246;2023-12-07T12:50:43;1.70;99.90
32728;DHT22;55292;51.844;19.246;2023-12-07T12:55:46;1.60;99.90
32728;DHT22;55292;51.844;19.246;2023-12-07T13:00:49;1.50;99.90
32728;DHT22;55292;51.844;19.246;2023-12-07T13:05:52;1.50;99.90
32728;DHT22;55292;51.844;19.246;2023-12-07T13:10:56;1.40;99.90
32728;DHT22;55292;51.844;19.246;2023-12-07T13:15:58;1.30;99.90
32728;DHT22;55292;51.844;19.246;2023-12-07T13:21:01;1.30;99.90
32728;DHT22;55292;51.844;19.246;2023-12-07T13:26:05;1.20;99.90
32728;DHT22;55292;51.844;19.246;2023-12-07T13:31:14;1.10;99.90
32728;DHT22;55292;51.844;19.246;2023-12-07T13:36:17;1.10;99.90
32728;DHT22;55292;51.844;19.246;2023-12-07T13:41:24;1.00;99.90
32728;DHT22;55292;51.844;19.246;2023-12-07T13:46:27;1.10;99.90
32728;DHT22;55292;51.844;19.246;2023-12-07T13:51:30;1.10;99.90
32728;DHT22;55292;51.844;19.246;2023-12-07T13:56:33;1.00;99.90
32728;DHT22;55292;51.844;19.246;2023-12-07T14:01:36;0.90;99.90
32728;DHT22;55292;51.844;19.246;2023-12-07T14:06:39;0.90;99.90
32728;DHT22;55292;51.844;19.246;2023-12-07T14:11:43;0.80;99.90
32728;DHT22;55292;51.844;19.246;2023-12-07T14:16:46;0.80;99.90
32728;DHT22;55292;51.844;19.246;2023-12-07T14:22:09;0.80;99.90
32728;DHT22;55292;51.844;19.246;2023-12-07T14:27:13;0.80;99.90
32728;DHT22;55292;51.844;19.246;2023-12-07T14:32:17;0.80;99.90
32728;DHT22;55292;51.844;19.246;2023-12-07T14:37:24;0.80;99.90
32728;DHT22;55292;51.844;19.246;2023-12-07T14:42:29;0.70;99.90
32728;DHT22;55292;51.844;19.246;2023-12-07T14:47:32;0.60;99.90
32728;DHT22;55292;51.844;19.246;2023-12-07T14:52:35;0.60;99.90
32728;DHT22;55292;51.844;19.246;2023-12-07T14:57:38;0.50;99.90
32728;DHT22;55292;51.844;19.246;2023-12-07T15:02:40;0.50;99.90
32728;DHT22;55292;51.844;19.246;2023-12-07T15:07:45;0.50;99.90
32728;DHT22;55292;51.844;19.246;2023-12-07T15:12:47;0.50;99.90
32728;DHT22;55292;51.844;19.246;2023-12-07T15:17:50;0.60;99.90
32728;DHT22;55292;51.844;19.246;2023-12-07T15:22:53;0.50;99.90
32728;DHT22;55292;51.844;19.246;2023-12-07T15:27:56;0.50;99.90
32728;DHT22;55292;51.844;19.246;2023-12-07T15:32:59;0.40;99.90
32728;DHT22;55292;51.844;19.246;2023-12-07T15:38:02;0.40;99.90
32728;DHT22;55292;51.844;19.246;2023-12-07T15:43:05;0.40;99.90
32728;DHT22;55292;51.844;19.246;2023-12-07T15:48:08;0.50;99.90
32728;DHT22;55292;51.844;19.246;2023-12-07T15:53:11;0.50;99.90
32728;DHT22;55292;51.844;19.246;2023-12-07T15:58:15;0.50;99.90
32728;DHT22;55292;51.844;19.246;2023-12-07T16:03:20;0.50;99.90
32728;DHT22;55292;51.844;19.246;2023-12-07T16:08:23;0.50;99.90
32728;DHT22;55292;51.844;19.246;2023-12-07T16:13:26;0.50;99.90
32728;DHT22;55292;51.844;19.246;2023-12-07T16:18:29;0.40;99.90
32728;DHT22;55292;51.844;19.246;2023-12-07T16:23:32;0.30;99.90
32728;DHT22;55292;51.844;19.246;2023-12-07T16:28:35;0.30;99.90
32728;DHT22;55292;51.844;19.246;2023-12-07T16:33:38;0.30;99.90
32728;DHT22;55292;51.844;19.246;2023-12-07T16:38:41;0.40;99.90
32728;DHT22;55292;51.844;19.246;2023-12-07T16:43:45;0.40;99.90
32728;DHT22;55292;51.844;19.246;2023-12-07T16:48:48;0.30;99.90
32728;DHT22;55292;51.844;19.246;2023-12-07T16:53:51;0.30;99.90
32728;DHT22;55292;51.844;19.246;2023-12-07T16:58:54;0.20;99.90
32728;DHT22;55292;51.844;19.246;2023-12-07T17:03:57;0.20;99.90
32728;DHT22;55292;51.844;19.246;2023-12-07T17:09:00;0.20;99.90
32728;DHT22;55292;51.844;19.246;2023-12-07T17:14:15;0.20;99.90
32728;DHT22;55292;51.844;19.246;2023-12-07T17:19:18;0.20;99.90
32728;DHT22;55292;51.844;19.246;2023-12-07T17:24:22;0.10;99.90
32728;DHT22;55292;51.844;19.246;2023-12-07T17:29:25;0.10;99.90
32728;DHT22;55292;51.844;19.246;2023-12-07T17:34:28;0.00;99.90
32728;DHT22;55292;51.844;19.246;2023-12-07T17:39:32;0.10;99.90
32728;DHT22;55292;51.844;19.246;2023-12-07T17:44:35;0.20;99.90
32728;DHT22;55292;51.844;19.246;2023-12-07T17:49:39;0.20;99.90
32728;DHT22;55292;51.844;19.246;2023-12-07T17:54:42;0.20;99.90
32728;DHT22;55292;51.844;19.246;2023-12-07T17:59:45;0.10;99.90
32728;DHT22;55292;51.844;19.246;2023-12-07T18:04:48;0.10;99.90
32728;DHT22;55292;51.844;19.246;2023-12-07T18:09:51;0.10;99.90
32728;DHT22;55292;51.844;19.246;2023-12-07T18:14:58;-0.60;99.90
32728;DHT22;55292;51.844;19.246;2023-12-07T18:20:00;0.10;99.90
32728;DHT22;55292;51.844;19.246;2023-12-07T18:25:04;0.10;99.90
32728;DHT22;55292;51.844;19.246;2023-12-07T18:30:07;0.10;99.90
32728;DHT22;55292;51.844;19.246;2023-12-07T18:35:11;0.10;99.90
32728;DHT22;55292;51.844;19.246;2023-12-07T18:40:14;0.10;99.90
32728;DHT22;55292;51.844;19.246;2023-12-07T18:45:18;0.20;99.90
32728;DHT22;55292;51.844;19.246;2023-12-07T18:50:21;0.20;99.90
32728;DHT22;55292;51.844;19.246;2023-12-07T18:55:24;0.20;99.90
32728;DHT22;55292;51.844;19.246;2023-12-07T19:00:27;0.20;99.90
32728;DHT22;55292;51.844;19.246;2023-12-07T19:05:30;0.20;99.90
32728;DHT22;55292;51.844;19.246;2023-12-07T19:10:33;0.20;99.90
32728;DHT22;55292;51.844;19.246;2023-12-07T19:15:36;0.10;99.90
32728;DHT22;55292;51.844;19.246;2023-12-07T19:20:40;0.10;99.90
32728;DHT22;55292;51.844;19.246;2023-12-07T19:25:43;0.20;99.90
32728;DHT22;55292;51.844;19.246;2023-12-07T19:30:46;0.00;99.90
32728;DHT22;55292;51.844;19.246;2023-12-07T19:35:49;0.10;99.90
32728;DHT22;55292;51.844;19.246;2023-12-07T19:40:52;0.10;99.90
32728;DHT22;55292;51.844;19.246;2023-12-07T19:45:55;0.20;99.90
32728;DHT22;55292;51.844;19.246;2023-12-07T19:50:58;0.20;99.90
32728;DHT22;55292;51.844;19.246;2023-12-07T19:56:01;0.20;99.90
32728;DHT22;55292;51.844;19.246;2023-12-07T20:01:04;0.20;99.90
32728;DHT22;55292;51.844;19.246;2023-12-07T20:06:09;0.20;99.90
32728;DHT22;55292;51.844;19.246;2023-12-07T20:11:17;0.20;99.90
32728;DHT22;55292;51.844;19.246;2023-12-07T20:16:20;0.30;99.90
32728;DHT22;55292;51.844;19.246;2023-12-07T20:21:24;0.30;99.90
32728;DHT22;55292;51.844;19.246;2023-12-07T20:26:26;0.30;99.90
32728;DHT22;55292;51.844;19.246;2023-12-07T20:31:29;0.30;99.90
32728;DHT22;55292;51.844;19.246;2023-12-07T20:36:33;0.10;99.90
32728;DHT22;55292;51.844;19.246;2023-12-07T20:41:39;0.10;99.90
32728;DHT22;55292;51.844;19.246;2023-12-07T20:46:42;0.10;99.90
32728;DHT22;55292;51.844;19.246;2023-12-07T20:51:45;0.20;99.90
32728;DHT22;55292;51.844;19.246;2023-12-07T20:56:47;0.20;99.90
32728;DHT22;55292;51.844;19.246;2023-12-07T21:01:52;0.20;99.90
32728;DHT22;55292;51.844;19.246;2023-12-07T21:06:55;0.30;99.90
32728;DHT22;55292;51.844;19.246;2023-12-07T21:11:58;0.20;99.90
32728;DHT22;55292;51.844;19.246;2023-12-07T21:17:01;0.30;99.90
32728;DHT22;55292;51.844;19.246;2023-12-07T21:22:04;0.30;99.90
32728;DHT22;55292;51.844;19.246;2023-12-07T21:27:06;0.30;99.90
32728;DHT22;55292;51.844;19.246;2023-12-07T21:32:10;0.30;99.90
32728;DHT22;55292;51.844;19.246;2023-12-07T21:37:12;0.20;99.90
32728;DHT22;55292;51.844;19.246;2023-12-07T21:42:16;0.20;99.90
32728;DHT22;55292;51.844;19.246;2023-12-07T21:47:19;0.30;99.90
32728;DHT22;55292;51.844;19.246;2023-12-07T21:52:22;0.40;99.90
32728;DHT22;55292;51.844;19.246;2023-12-07T21:57:25;0.40;99.90
32728;DHT22;55292;51.844;19.246;2023-12-07T22:02:28;0.40;99.90
32728;DHT22;55292;51.844;19.246;2023-12-07T22:07:31;0.40;99.90
32728;DHT22;55292;51.844;19.246;2023-12-07T22:12:34;0.50;99.90
32728;DHT22;55292;51.844;19.246;2023-12-07T22:17:37;0.50;99.90
32728;DHT22;55292;51.844;19.246;2023-12-07T22:22:41;0.50;99.90
32728;DHT22;55292;51.844;19.246;2023-12-07T22:27:44;0.50;99.90
32728;DHT22;55292;51.844;19.246;2023-12-07T22:32:47;0.50;99.90
32728;DHT22;55292;51.844;19.246;2023-12-07T22:37:50;0.50;99.90
32728;DHT22;55292;51.844;19.246;2023-12-07T22:42:52;0.50;99.90
32728;DHT22;55292;51.844;19.246;2023-12-07T22:47:55;0.50;99.90
32728;DHT22;55292;51.844;19.246;2023-12-07T22:52:58;0.50;99.90
32728;DHT22;55292;51.844;19.246;2023-12-07T22:58:01;0.50;99.90
32728;DHT22;55292;51.844;19.246;2023-12-07T23:03:04;0.50;99.90
32728;DHT22;55292;51.844;19.246;2023-12-07T23:08:07;0.50;99.90
32728;DHT22;55292;51.844;19.246;2023-12-07T23:13:10;0.50;99.90
32728;DHT22;55292;51.844;19.246;2023-12-07T23:18:13;0.50;99.90
32728;DHT22;55292;51.844;19.246;2023-12-07T23:23:16;0.50;99.90
32728;DHT22;55292;51.844;19.246;2023-12-07T23:28:18;0.50;99.90
32728;DHT22;55292;51.844;19.246;2023-12-07T23:33:21;0.50;99.90
32728;DHT22;55292;51.844;19.246;2023-12-07T23:38:25;0.30;99.90
32728;DHT22;55292;51.844;19.246;2023-12-07T23:43:27;0.30;99.90
32728;DHT22;55292;51.844;19.246;2023-12-07T23:48:30;0.50;99.90
32728;DHT22;55292;51.844;19.246;2023-12-07T23:53:33;0.20;99.90
32728;DHT22;55292;51.844;19.246;2023-12-07T23:58:36;0.20;99.90
